Airfield :
LOGIN :

Register | Disclaimer

   EN    FR    IT 

 










Legend :    VFR   Marginal VFR   IFR   Intensive IFR   Very Intensive IFR
Visi :
Ceiling :
>= 8 km
>= 3000ft
5 to 8 km
1000 to 3000 ft
1500m to 5 km
500 to 1000 ft
800 to 1500m
200 to 500 ft
< 800m
< 200 ft
Symbols :   Thunderstorms  Fog  Heavy snow  Heavy precipitations  Wind > 20 kt
SIGMETs :     Misc.  Thunderstorms  Icing  Turbulence  Mountain Waves  Volcanic Ashes






- Airport Elevation : 247 ft
- IATA code : BLL


EKBI - Billund

CURRENT METAR :
  • 021320Z AUTO 24022G34KT 9999 OVC023/// 07/03 Q1000

EXPIRED METARs :
  • 021250Z AUTO 24023G37KT 9999 BKN021/// 07/03 Q1000
  • 021220Z AUTO 24025G42KT 9999 OVC022/// 07/03 Q1000
  • 021150Z AUTO 24023G38KT 9999 OVC017/// 08/03 Q1000
  • 021120Z AUTO 24023G35KT 9999 -RA OVC019/// 07/04 Q1001
  • 021050Z AUTO 24021G33KT 9999 OVC017/// 08/04 Q1001

TAF TAF EKBI
Valid from the 02 at 12:00 until the 03 at 12:00 UTC


021059Z 0212/0312 27018KT 9999 BKN020
TEMPO 0212/0218 26020G35KT SHRA BKN012 BKN015CB
TEMPO 0218/0222 28018G30KT FEW020CB
TEMPO 0222/0306 29015G28KT 3000 SHRASNGS BKN012 SCT015CB
TEMPO 0306/0312 29018G30KT FEW025CB



MET'MAP, your aeronautical weather chart ! - Copyright ORBIFLY December 2007 - Disclaimer

ORBIFLY MET'MAP TEAM :

Programming & Development : Alexandra Zaïnal
Concept & original design : Baudouin d'Aumeries
Assistance for programming : Marc-Olivier Méhu
Technical & hardware support : Manuel Goepfert

Contact : metmap@orbifly.com




SOURCES & CREDITS :

   NOAA